Sunday, October 21, 2018, 7:10 PM EDT
Back to Local

KBDL, Bradley International Airport

Location: Windsor Locks, CT, United States Lat: 41.933
Local Time: 7:10 PM EDT (23:10 GMT) Lon: -72.683
Time Zone: US/Eastern Elev: 173 ft

Show me the last for .
Show Decoded

2018-10-21 18:51 METAR KBDL 212251Z 31009KT 10SM FEW060 04/M07 A3002 RMK AO2 SLP165 T00391067 =
2018-10-21 17:51 METAR KBDL 212151Z 31005KT 10SM FEW060 05/M06 A2998 RMK AO2 SLP154 T00501056 =
2018-10-21 16:51 METAR KBDL 212051Z 31012G19KT 10SM FEW060 07/M07 A2994 RMK AO2 PK WND 30026/1959
                 SLP139 T00721067 53016 =
2018-10-21 15:51 METAR KBDL 211951Z 31015G26KT 10SM SCT060 08/M07 A2991 RMK AO2 PK WND 30027/1940
                 SLP130 T00781072 =
2018-10-21 14:51 METAR KBDL 211851Z 32018G24KT 10SM SCT055 08/M06 A2990 RMK AO2 PK WND 32030/1839
                 SLP125 T00831061 =
2018-10-21 13:51 METAR KBDL 211751Z 31017KT 10SM BKN050 07/M04 A2989 RMK AO2 PK WND 30028/1714
                 SLP123 T00721044 10078 20061 51010 =
2018-10-21 12:51 METAR KBDL 211651Z 30014G21KT 10SM BKN047 OVC060 07/M04 A2988 RMK AO2 PK WND
                 30029/1640 SLP120 T00671039 =
2018-10-21 11:51 METAR KBDL 211551Z 33014G26KT 10SM BKN047 BKN055 07/M03 A2988 RMK AO2 PK WND
                 31028/1523 SLP118 T00721033 =
2018-10-21 10:51 METAR KBDL 211451Z 31017G23KT 10SM OVC046 07/M02 A2986 RMK AO2 PK WND 30027/1408
                 SLP113 BINOVC OHD T00671022 51038 =
2018-10-21 09:51 METAR KBDL 211351Z 31017G24KT 10SM SCT047 BKN170 BKN250 07/M01 A2984 RMK AO2
                 SLP104 T00671006 =
2018-10-21 08:51 METAR KBDL 211251Z 32018G23KT 10SM SCT046 BKN120 BKN200 07/M02 A2979 RMK AO2 PK
                 WND 31029/1227 SLP090 T00721017 =
2018-10-21 07:51 METAR KBDL 211151Z 32009KT 10SM FEW038 SCT085 BKN110 OVC130 08/02 A2975 RMK AO2
                 RAE16 SLP075 P0000 60000 70001 T00780022 10089 20067 53041 =
2018-10-21 06:51 METAR KBDL 211051Z 01003KT 10SM -RA FEW036 BKN055 OVC080 07/05 A2970 RMK AO2
                 RAB25 SLP056 P0000 T00720050 =
2018-10-21 05:51 METAR KBDL 210951Z 34005KT 10SM BKN045 OVC065 08/04 A2966 RMK AO2 SLP045
                 T00780044 =
2018-10-21 04:51 METAR KBDL 210851Z 35005KT 10SM BKN055 OVC070 08/04 A2963 RMK AO2 RAE27 SLP033
                 P0000 60000 T00780039 53010 =
2018-10-21 03:51 METAR KBDL 210751Z 35010KT 10SM -RA FEW055 OVC070 08/04 A2960 RMK AO2 RAE23B44
                 SLP021 P0000 T00830044 =
2018-10-21 02:51 METAR KBDL 210651Z 35005KT 10SM -RA OVC055 09/04 A2960 RMK AO2 RAE03B47 SLP024
                 P0000 T00890044 =
2018-10-21 01:51 METAR KBDL 210551Z 29006KT 10SM -RA BKN050 BKN075 OVC110 08/07 A2960 RMK AO2
                 SLP022 P0001 60001 T00830067 10094 20072 55003 =
2018-10-21 00:51 METAR KBDL 210451Z 30004KT 10SM -RA BKN085 OVC110 08/07 A2960 RMK AO2 RAB46
                 SLP021 P0000 T00830072 401780072 =
2018-10-20 23:51 METAR KBDL 210351Z 13003KT 10SM SCT090 BKN110 09/07 A2960 RMK AO2 SLP024
                 T00940067 =
2018-10-20 22:51 METAR KBDL 210251Z 00000KT 10SM SCT070 BKN090 OVC190 09/06 A2961 RMK AO2 SLP025
                 T00940061 50003 =
2018-10-20 21:51 METAR KBDL 210151Z 00000KT 10SM FEW070 BKN085 BKN180 09/07 A2961 RMK AO2 SLP027
                 T00890067 =
2018-10-20 20:51 METAR KBDL 210051Z COR 23005KT 10SM BKN085 BKN180 09/07 A2960 RMK AO2 SLP024
                 T00890067 =
2018-10-20 19:51 METAR KBDL 202351Z 00000KT 10SM FEW090 FEW130 09/07 A2960 RMK AO2 SLP023 60000
                 T00940067 10178 20094 53003 =

Support USWX by starting your Amazon purchase here.